Cap Felix — ONFH — position and weather

sailwx.info

Track history (hours):
 
Tides and Currents Weather Stations Pressure Air Temp Water Temp Dewpoint Dewpoint Depression Visibility Wind Speed Wind Dir Waves Ship Positions

Cap Felix

Last reported at 2016-Jul-24 20:32 UTC. Time now 2016-Jul-25 08:06 UTC.
Position N 38°40' E 120°20'.

Length 275 m; draft 16.6 m.

Type: Tanker. MMSI: 205517000.

Date/timePositionNaut miles runAvg speedWind from/ knotsBaromVisibWave heightAir tempDewpointWater temp
2016-Jul-24 20:32N 38°40' E 120°20'1413.1
2016-Jul-24 19:26N 38°38' E 120°38'1011.4
2016-Jul-24 18:33N 38°37' E 120°51'1010.3
2016-Jul-24 17:33N 38°33' E 121°03'1312.3
2016-Jul-24 16:32N 38°27' E 121°17'9112.4
2016-Jul-24 09:11N 37°41' E 122°57'811.9
2016-Jul-24 08:32N 37°36' E 123°05'1110.6
2016-Jul-24 07:28N 37°28' E 123°14'1111.4
2016-Jul-24 06:31N 37°17' E 123°16'1111.4
2016-Jul-24 05:33N 37°06' E 123°19'1411.9
2016-Jul-24 04:22N 36°52' E 123°22'15613.0
2016-Jul-23 16:20N 34°19' E 123°59'1012.9
2016-Jul-23 15:32N 34°09' E 124°00'1612.5
2016-Jul-23 14:16N 33°53' E 123°60'  
2016-Jul-16 06:21N 01°15' E 104°08'9 5.0
2016-Jul-16 04:32N 01°14' E 103°59'4 3.9
2016-Jul-16 03:33N 01°13' E 103°55'9 8.7
2016-Jul-16 02:33N 01°09' E 103°47'8710.6
2016-Jul-15 18:21N 01°47' E 102°29'1012.2
2016-Jul-15 17:31N 01°51' E 102°19'  
Track history (hours):
 
Tides and Currents Weather Stations Pressure Air Temp Water Temp Dewpoint Dewpoint Depression Visibility Wind Speed Wind Dir Waves Ship Positions

Cap Felix

Last reported at 2016-Jul-24 20:32 UTC. Time now 2016-Jul-25 08:06 UTC.
Position N 38°40' E 120°20'.

Length 275 m; draft 16.6 m.

Type: Tanker. MMSI: 205517000.

Date/timePositionNaut miles runAvg speedWind from/ knotsBaromVisibWave heightAir tempDewpointWater temp
2016-Jul-24 20:32N 38°40' E 120°20'1413.1
2016-Jul-24 19:26N 38°38' E 120°38'1011.4
2016-Jul-24 18:33N 38°37' E 120°51'1010.3
2016-Jul-24 17:33N 38°33' E 121°03'1312.3
2016-Jul-24 16:32N 38°27' E 121°17'9112.4
2016-Jul-24 09:11N 37°41' E 122°57'811.9
2016-Jul-24 08:32N 37°36' E 123°05'1110.6
2016-Jul-24 07:28N 37°28' E 123°14'1111.4
2016-Jul-24 06:31N 37°17' E 123°16'1111.4
2016-Jul-24 05:33N 37°06' E 123°19'1411.9
2016-Jul-24 04:22N 36°52' E 123°22'15613.0
2016-Jul-23 16:20N 34°19' E 123°59'1012.9
2016-Jul-23 15:32N 34°09' E 124°00'1612.5
2016-Jul-23 14:16N 33°53' E 123°60'  
2016-Jul-16 06:21N 01°15' E 104°08'9 5.0
2016-Jul-16 04:32N 01°14' E 103°59'4 3.9
2016-Jul-16 03:33N 01°13' E 103°55'9 8.7
2016-Jul-16 02:33N 01°09' E 103°47'8710.6
2016-Jul-15 18:21N 01°47' E 102°29'1012.2
2016-Jul-15 17:31N 01°51' E 102°19'  

Dump ship's entire track history